createdAt,value
2018-05-04T00:01:02.981Z,56.77
2018-05-04T00:03:30.550Z,55.90
2018-05-04T00:05:58.131Z,57.17
2018-05-04T00:08:26.469Z,58.80
2018-05-04T00:10:54.059Z,56.40
2018-05-04T00:13:21.633Z,51.67
2018-05-04T00:15:49.268Z,52.20
2018-05-04T00:18:16.838Z,52.70
2018-05-04T00:20:44.440Z,48.57
2018-05-04T00:23:12.098Z,48.97
2018-05-04T00:25:39.659Z,53.90
2018-05-04T00:28:07.239Z,45.77
2018-05-04T00:30:34.811Z,53.03
2018-05-04T00:33:02.461Z,52.37
2018-05-04T00:35:30.046Z,53.67
2018-05-04T00:37:57.655Z,50.27
2018-05-04T00:40:25.218Z,48.00
2018-05-04T00:42:52.760Z,43.60
2018-05-04T00:45:21.055Z,39.50
2018-05-04T00:47:48.570Z,37.43
2018-05-04T00:50:16.105Z,35.23
2018-05-04T00:52:43.627Z,36.10
2018-05-04T00:55:11.902Z,35.87
2018-05-04T00:57:40.200Z,34.40
2018-05-04T01:00:07.719Z,37.17
2018-05-04T01:02:35.259Z,34.40
2018-05-04T01:05:02.774Z,36.37
2018-05-04T01:07:31.063Z,37.97
2018-05-04T01:09:59.353Z,39.37
2018-05-04T01:12:26.885Z,38.30
2018-05-04T01:14:54.412Z,37.23
2018-05-04T01:17:21.925Z,37.87
2018-05-04T01:19:50.213Z,37.53
2018-05-04T01:22:18.495Z,40.20
2018-05-04T01:24:46.803Z,43.60
2018-05-04T01:27:14.323Z,41.43
2018-05-04T01:29:41.844Z,42.60
2018-05-04T01:32:09.375Z,39.77
2018-05-04T01:34:37.660Z,41.17
2018-05-04T01:37:05.184Z,36.97
2018-05-04T01:39:32.723Z,37.83
2018-05-04T01:42:00.276Z,37.40
2018-05-04T01:44:27.780Z,39.10
2018-05-04T01:46:55.287Z,37.80
2018-05-04T01:49:22.815Z,33.90
2018-05-04T01:51:50.339Z,33.00
2018-05-04T01:54:17.858Z,32.10
2018-05-04T01:56:46.134Z,30.77
2018-05-04T01:59:14.436Z,30.20
2018-05-04T02:01:41.966Z,29.33
2018-05-04T02:04:09.518Z,29.50
2018-05-04T02:06:37.040Z,30.20
2018-05-04T02:09:05.467Z,30.33
2018-05-04T02:11:32.997Z,31.97
2018-05-04T02:14:00.507Z,32.50
2018-05-04T02:16:28.796Z,32.80
2018-05-04T02:18:57.077Z,34.30
2018-05-04T02:21:25.382Z,31.30
2018-05-04T02:23:52.901Z,31.07
2018-05-04T02:26:20.442Z,31.93
2018-05-04T02:28:47.969Z,32.70
2018-05-04T02:31:15.492Z,32.30
2018-05-04T02:33:43.017Z,34.27
2018-05-04T02:36:10.533Z,30.97
2018-05-04T02:38:38.843Z,31.73
2018-05-04T02:41:07.119Z,32.70
2018-05-04T02:43:34.653Z,35.00
2018-05-04T02:46:02.176Z,35.70
2018-05-04T02:48:29.728Z,34.73
2018-05-04T02:50:57.259Z,35.37
2018-05-04T02:53:25.539Z,33.27
2018-05-04T02:55:53.840Z,31.73
2018-05-04T02:58:21.358Z,32.83
2018-05-04T03:00:48.888Z,31.87
2018-05-04T03:03:16.480Z,28.80
2018-05-04T03:05:43.990Z,28.60
2018-05-04T03:08:12.265Z,26.60
2018-05-04T03:10:40.567Z,25.20
2018-05-04T03:13:08.084Z,24.63
2018-05-04T03:15:35.606Z,25.77
2018-05-04T03:18:03.125Z,23.47
2018-05-04T03:20:30.725Z,24.53
2018-05-04T03:22:58.259Z,21.53
2018-05-04T03:25:26.535Z,22.20
2018-05-04T03:27:54.831Z,22.20
2018-05-04T03:30:23.119Z,20.83
2018-05-04T03:32:51.398Z,18.83
2018-05-04T03:35:19.703Z,18.73
2018-05-04T03:37:47.217Z,20.90
2018-05-04T03:40:14.765Z,21.10
2018-05-04T03:42:42.285Z,20.03
2018-05-04T03:45:09.825Z,21.73
2018-05-04T03:47:38.106Z,23.50
2018-05-04T03:50:06.387Z,23.43
2018-05-04T03:52:34.691Z,24.20
2018-05-04T03:55:02.213Z,22.50
2018-05-04T03:57:41.626Z,21.77
2018-05-04T04:00:21.080Z,21.40
2018-05-04T04:03:01.255Z,22.87
2018-05-04T04:05:30.049Z,23.63
2018-05-04T04:07:58.372Z,22.63
2018-05-04T04:10:25.905Z,23.30
2018-05-04T04:12:53.425Z,23.40
2018-05-04T04:15:20.954Z,21.57
2018-05-04T04:17:48.474Z,20.40
2018-05-04T04:20:16.786Z,19.97
2018-05-04T04:22:44.306Z,22.93
2018-05-04T04:25:11.861Z,21.20
2018-05-04T04:27:40.995Z,22.77
2018-05-04T04:30:09.306Z,21.57
2018-05-04T04:32:36.817Z,21.57
2018-05-04T04:35:04.347Z,20.50
2018-05-04T04:37:31.879Z,22.37
2018-05-04T04:39:59.423Z,22.53
2018-05-04T04:42:27.729Z,21.37
2018-05-04T04:44:55.259Z,20.97
2018-05-04T04:47:22.813Z,20.63
2018-05-04T04:49:50.331Z,22.60
2018-05-04T04:52:17.844Z,21.03
2018-05-04T04:54:45.364Z,21.20
2018-05-04T04:57:12.887Z,21.83
2018-05-04T04:59:40.407Z,21.17
2018-05-04T05:02:07.924Z,20.13
2018-05-04T05:04:36.231Z,21.37
2018-05-04T05:07:03.744Z,20.03
2018-05-04T05:09:31.247Z,21.17
2018-05-04T05:11:58.779Z,21.53
2018-05-04T05:14:26.296Z,19.67
2018-05-04T05:16:53.818Z,20.47
2018-05-04T05:19:22.097Z,20.80
2018-05-04T05:21:50.410Z,21.60
2018-05-04T05:24:17.930Z,19.37
2018-05-04T05:26:45.502Z,21.63
2018-05-04T05:29:13.014Z,20.13
2018-05-04T05:31:40.529Z,21.70
2018-05-04T05:34:08.847Z,21.93
2018-05-04T05:36:36.359Z,23.30
2018-05-04T05:39:03.896Z,23.50
2018-05-04T05:41:31.414Z,23.87
2018-05-04T05:43:59.732Z,25.40
2018-05-04T05:46:27.236Z,25.33
2018-05-04T05:48:54.761Z,25.80
2018-05-04T05:51:22.288Z,25.97
2018-05-04T05:53:50.575Z,25.73
2018-05-04T05:56:18.859Z,27.80
2018-05-04T05:58:46.379Z,28.20
2018-05-04T06:01:13.931Z,28.00
2018-05-04T06:03:41.456Z,25.97
2018-05-04T06:06:08.974Z,26.53
2018-05-04T06:08:37.283Z,26.47
2018-05-04T06:11:05.581Z,26.20
2018-05-04T06:13:33.109Z,25.10
2018-05-04T06:16:01.401Z,25.20
2018-05-04T06:18:28.936Z,25.23
2018-05-04T06:20:56.482Z,25.87
2018-05-04T06:23:23.996Z,23.70
2018-05-04T06:25:51.554Z,26.30
2018-05-04T06:28:19.920Z,26.40
2018-05-04T06:30:47.401Z,28.73
2018-05-04T06:33:14.910Z,28.80
2018-05-04T06:35:42.447Z,29.70
2018-05-04T06:38:10.734Z,28.97
2018-05-04T06:40:38.260Z,28.93
2018-05-04T06:43:05.788Z,30.67
2018-05-04T06:45:33.310Z,29.13
2018-05-04T06:48:01.618Z,30.10
2018-05-04T06:50:29.142Z,31.17
2018-05-04T06:52:56.699Z,28.37
2018-05-04T06:55:24.225Z,30.07
2018-05-04T06:57:51.756Z,31.13
2018-05-04T07:00:20.051Z,30.70
2018-05-04T07:02:47.562Z,29.27
2018-05-04T07:05:15.097Z,30.80
2018-05-04T07:07:42.618Z,27.27
2018-05-04T07:10:10.903Z,26.63
2018-05-04T07:12:39.183Z,29.57
2018-05-04T07:15:07.527Z,27.30
2018-05-04T07:17:35.048Z,27.90
2018-05-04T07:20:02.582Z,28.90
2018-05-04T07:22:30.880Z,27.33
2018-05-04T07:24:59.167Z,29.50
2018-05-04T07:27:26.706Z,30.03
2018-05-04T07:29:54.981Z,29.90
2018-05-04T07:32:22.524Z,30.40
2018-05-04T07:34:50.031Z,30.50
2018-05-04T07:37:18.310Z,31.37
2018-05-04T07:39:46.620Z,30.07
2018-05-04T07:42:14.151Z,28.97
2018-05-04T07:44:42.452Z,29.03
2018-05-04T07:47:09.974Z,31.63
2018-05-04T07:49:37.506Z,30.10
2018-05-04T07:52:05.040Z,32.80
2018-05-04T07:54:32.563Z,31.73
2018-05-04T07:57:00.078Z,30.47
2018-05-04T07:59:27.588Z,32.30
2018-05-04T08:01:55.140Z,32.50
2018-05-04T08:04:22.679Z,31.83
2018-05-04T08:06:50.221Z,32.70
2018-05-04T08:09:17.735Z,33.17
2018-05-04T08:11:45.264Z,33.40
2018-05-04T08:14:12.773Z,33.37
2018-05-04T08:16:40.328Z,35.37
2018-05-04T08:19:07.851Z,33.93
2018-05-04T08:21:35.380Z,34.50
2018-05-04T08:24:03.672Z,38.00
2018-05-04T08:26:31.945Z,37.90
2018-05-04T08:29:00.231Z,37.57
2018-05-04T08:31:28.508Z,35.43
2018-05-04T08:33:56.827Z,37.07
2018-05-04T08:36:24.356Z,36.10
2018-05-04T08:38:52.634Z,36.53
2018-05-04T08:41:20.931Z,36.50
2018-05-04T08:43:48.466Z,35.53
2018-05-04T08:46:16.000Z,36.07
2018-05-04T08:48:43.528Z,34.57
2018-05-04T08:51:11.106Z,34.67
2018-05-04T08:53:39.351Z,34.67
2018-05-04T08:56:07.690Z,37.57
2018-05-04T08:58:35.211Z,34.73
2018-05-04T09:01:03.492Z,37.37
2018-05-04T09:03:31.784Z,36.33
2018-05-04T09:05:59.306Z,33.90
2018-05-04T09:08:26.837Z,35.30
2018-05-04T09:10:54.359Z,37.73
2018-05-04T09:13:22.703Z,35.83
2018-05-04T09:15:50.213Z,36.73
2018-05-04T09:18:18.509Z,34.80
2018-05-04T09:20:46.074Z,37.30
2018-05-04T09:23:13.590Z,37.23
2018-05-04T09:25:41.145Z,34.30
2018-05-04T09:28:09.425Z,38.50
2018-05-04T09:30:36.992Z,37.90
2018-05-04T09:33:04.615Z,34.10
2018-05-04T09:35:32.135Z,31.70
2018-05-04T09:37:59.680Z,34.73
2018-05-04T09:40:27.198Z,33.23
2018-05-04T09:42:54.736Z,32.37
2018-05-04T09:45:23.032Z,34.83
2018-05-04T09:47:51.332Z,32.53
2018-05-04T09:50:18.846Z,34.00
2018-05-04T09:52:46.375Z,33.27
2018-05-04T09:55:13.896Z,34.47
2018-05-04T09:57:42.210Z,32.13
2018-05-04T10:00:09.720Z,31.47
2018-05-04T10:02:37.251Z,34.43
2018-05-04T10:05:04.787Z,32.80
2018-05-04T10:07:32.304Z,33.40
2018-05-04T10:09:59.840Z,31.47
2018-05-04T10:12:27.376Z,34.40
2018-05-04T10:14:55.679Z,35.43
2018-05-04T10:17:23.216Z,35.67
2018-05-04T10:19:51.490Z,33.53
2018-05-04T10:22:19.786Z,35.37
2018-05-04T10:24:47.316Z,35.57
2018-05-04T10:27:14.854Z,33.20
2018-05-04T10:29:42.373Z,35.20
2018-05-04T10:32:09.911Z,35.27
2018-05-04T10:34:37.445Z,36.17
2018-05-04T10:37:04.992Z,36.20
2018-05-04T10:39:32.521Z,36.10
2018-05-04T10:42:00.833Z,37.37
2018-05-04T10:44:28.361Z,33.47
2018-05-04T10:46:56.654Z,36.43
2018-05-04T10:49:24.199Z,35.50
2018-05-04T10:51:52.506Z,34.47
2018-05-04T10:54:20.053Z,32.00
2018-05-04T10:56:48.359Z,31.53
2018-05-04T10:59:15.908Z,36.07
2018-05-04T11:01:44.209Z,32.63
2018-05-04T11:04:11.729Z,30.43
2018-05-04T11:06:39.243Z,31.97
2018-05-04T11:09:06.780Z,31.03
2018-05-04T11:11:35.068Z,32.13
2018-05-04T11:14:02.609Z,30.30
2018-05-04T11:16:30.918Z,32.60
2018-05-04T11:18:58.463Z,27.97
2018-05-04T11:21:26.746Z,30.93
2018-05-04T11:23:55.056Z,30.70
2018-05-04T11:26:22.603Z,32.10
2018-05-04T11:28:50.136Z,32.27
2018-05-04T11:31:17.674Z,31.23
2018-05-04T11:33:45.185Z,31.10
2018-05-04T11:36:13.495Z,30.03
2018-05-04T11:38:41.021Z,31.03
2018-05-04T11:41:09.292Z,31.87
2018-05-04T11:43:36.824Z,31.30
2018-05-04T11:46:04.358Z,31.73
2018-05-04T11:48:31.900Z,31.30
2018-05-04T11:51:00.184Z,29.57
2018-05-04T11:53:28.484Z,27.00
2018-05-04T11:55:56.006Z,31.50
2018-05-04T11:58:23.526Z,30.50
2018-05-04T12:00:51.066Z,28.40
2018-05-04T12:03:19.376Z,29.33
2018-05-04T12:05:46.932Z,27.80
2018-05-04T12:08:14.445Z,27.97
2018-05-04T12:10:42.843Z,29.97
2018-05-04T12:13:10.300Z,30.07
2018-05-04T12:15:38.593Z,30.07
2018-05-04T12:18:06.155Z,27.80
2018-05-04T12:20:34.433Z,29.70
2018-05-04T12:23:02.745Z,27.70
2018-05-04T12:25:30.289Z,30.97
2018-05-04T12:27:57.839Z,31.23
2018-05-04T12:30:26.142Z,30.13
2018-05-04T12:32:53.677Z,29.47
2018-05-04T12:35:21.978Z,30.30
2018-05-04T12:37:50.269Z,31.10
2018-05-04T12:40:17.816Z,29.27
2018-05-04T12:42:46.103Z,32.30
2018-05-04T12:45:14.406Z,28.37
2018-05-04T12:47:41.936Z,28.27
2018-05-04T12:50:10.232Z,31.70
2018-05-04T12:52:37.781Z,29.70
2018-05-04T12:55:06.075Z,30.37
2018-05-04T12:57:34.352Z,29.77
2018-05-04T13:00:02.660Z,30.53
2018-05-04T13:02:30.187Z,30.50
2018-05-04T13:04:58.497Z,31.40
2018-05-04T13:07:26.028Z,30.00
2018-05-04T13:09:54.330Z,30.37
2018-05-04T13:12:22.673Z,29.73
2018-05-04T13:14:51.013Z,29.70
2018-05-04T13:17:18.608Z,30.30
2018-05-04T13:19:46.159Z,33.57
2018-05-04T13:22:13.725Z,31.90
2018-05-04T13:24:41.251Z,31.97
2018-05-04T13:27:09.535Z,29.00
2018-05-04T13:29:37.857Z,29.47
2018-05-04T13:32:05.375Z,28.87
2018-05-04T13:34:33.668Z,31.40
2018-05-04T13:37:01.202Z,30.40
2018-05-04T13:39:28.738Z,32.23
2018-05-04T13:41:56.295Z,30.10
2018-05-04T13:44:23.968Z,30.00
2018-05-04T13:46:51.486Z,29.43
2018-05-04T13:49:18.991Z,28.50
2018-05-04T13:51:46.538Z,31.67
2018-05-04T13:54:14.074Z,29.93
2018-05-04T13:56:42.368Z,30.70
2018-05-04T13:59:09.914Z,31.00
2018-05-04T14:01:38.219Z,31.33
2018-05-04T14:04:05.792Z,32.33
2018-05-04T14:06:33.322Z,32.20
2018-05-04T14:09:01.612Z,32.17
2018-05-04T14:11:29.910Z,32.53
2018-05-04T14:13:57.432Z,29.67
2018-05-04T14:16:24.992Z,28.97
2018-05-04T14:18:52.531Z,31.67
2018-05-04T14:21:20.057Z,29.40
2018-05-04T14:23:47.585Z,27.97
2018-05-04T14:26:15.107Z,30.50
2018-05-04T14:28:42.632Z,30.43
2018-05-04T14:31:10.942Z,28.97
2018-05-04T14:33:38.481Z,29.00
2018-05-04T14:36:06.778Z,27.63
2018-05-04T14:38:34.323Z,28.30
2018-05-04T14:41:02.632Z,26.93
2018-05-04T14:43:30.174Z,28.23
2018-05-04T14:45:57.729Z,29.00
2018-05-04T14:48:26.048Z,27.03
2018-05-04T14:50:53.617Z,30.00
2018-05-04T14:53:21.133Z,28.57
2018-05-04T14:55:49.461Z,28.43
2018-05-04T14:58:17.004Z,30.67
2018-05-04T15:00:44.521Z,26.70
2018-05-04T15:03:12.064Z,28.07
2018-05-04T15:05:39.593Z,28.53
2018-05-04T15:08:07.174Z,29.87
2018-05-04T15:10:34.728Z,28.03
2018-05-04T15:13:02.296Z,29.97
2018-05-04T15:15:29.834Z,29.77
2018-05-04T15:17:58.215Z,28.17
2018-05-04T15:20:25.732Z,28.67
2018-05-04T15:22:53.305Z,29.20
2018-05-04T15:25:20.942Z,29.50
2018-05-04T15:27:48.495Z,29.53
2018-05-04T15:30:16.033Z,27.73
2018-05-04T15:32:44.395Z,31.17
2018-05-04T15:35:11.984Z,28.47
2018-05-04T15:37:40.330Z,29.00
2018-05-04T15:40:07.906Z,27.20
2018-05-04T15:42:35.450Z,29.50
2018-05-04T15:45:02.987Z,28.77
2018-05-04T15:47:30.513Z,31.40
2018-05-04T15:49:58.935Z,29.47
2018-05-04T15:52:26.461Z,29.47
2018-05-04T15:54:54.013Z,28.23
2018-05-04T15:57:22.306Z,27.57
2018-05-04T15:59:49.872Z,28.50
2018-05-04T16:02:18.203Z,28.03
2018-05-04T16:04:45.737Z,29.87
2018-05-04T16:07:13.270Z,26.00
2018-05-04T16:09:40.881Z,25.63
2018-05-04T16:12:08.424Z,28.50
2018-05-04T16:14:36.750Z,29.80
2018-05-04T16:17:04.303Z,25.27
2018-05-04T16:19:31.844Z,27.43
2018-05-04T16:22:00.173Z,26.27
2018-05-04T16:24:27.714Z,27.40
2018-05-04T16:26:55.273Z,26.83
2018-05-04T16:29:22.830Z,27.10
2018-05-04T16:31:50.352Z,27.23
2018-05-04T16:34:17.946Z,27.17
2018-05-04T16:36:46.265Z,27.50
2018-05-04T16:39:13.804Z,27.20
2018-05-04T16:41:41.401Z,25.80
2018-05-04T16:44:08.933Z,26.93
2018-05-04T16:46:42.097Z,26.50
2018-05-04T16:49:15.275Z,27.73
2018-05-04T16:51:42.793Z,26.33
2018-05-04T16:54:10.328Z,27.53
2018-05-04T16:56:38.617Z,27.50
2018-05-04T16:59:06.159Z,27.03
2018-05-04T17:01:34.486Z,28.87
2018-05-04T17:04:02.022Z,28.00
2018-05-04T17:06:30.331Z,25.83
2018-05-04T17:08:57.967Z,26.70
2018-05-04T17:11:25.470Z,26.23
2018-05-04T17:13:52.998Z,26.80
2018-05-04T17:16:21.355Z,27.50
2018-05-04T17:18:48.898Z,26.47
2018-05-04T17:21:16.426Z,28.50
2018-05-04T17:23:43.966Z,26.70
2018-05-04T17:26:12.259Z,27.87
2018-05-04T17:28:40.597Z,26.20
2018-05-04T17:31:08.118Z,27.53
2018-05-04T17:33:35.661Z,26.77
2018-05-04T17:36:03.968Z,25.80
2018-05-04T17:38:31.495Z,26.33
2018-05-04T17:40:59.802Z,25.17
2018-05-04T17:43:27.336Z,25.20
2018-05-04T17:45:54.873Z,28.13
2018-05-04T17:48:22.427Z,24.33
2018-05-04T17:50:49.970Z,27.20
2018-05-04T17:53:17.505Z,25.97
2018-05-04T17:55:45.799Z,24.13
2018-05-04T17:58:13.345Z,23.80
2018-05-04T18:00:41.638Z,23.70
2018-05-04T18:03:10.020Z,26.80
2018-05-04T18:05:37.562Z,25.17
2018-05-04T18:08:05.119Z,26.23
2018-05-04T18:10:32.700Z,26.87
2018-05-04T18:13:01.036Z,26.50
2018-05-04T18:15:28.593Z,27.47
2018-05-04T18:17:56.246Z,27.30
2018-05-04T18:20:23.828Z,24.63
2018-05-04T18:22:51.373Z,26.07
2018-05-04T18:25:18.946Z,24.97
2018-05-04T18:27:46.514Z,24.67
2018-05-04T18:30:14.072Z,26.00
2018-05-04T18:32:41.740Z,24.90
2018-05-04T18:35:09.403Z,27.77
2018-05-04T18:37:37.012Z,26.60
2018-05-04T18:40:04.736Z,25.00
2018-05-04T18:42:32.324Z,27.40
2018-05-04T18:45:00.512Z,25.00
2018-05-04T18:47:28.890Z,26.77
2018-05-04T18:49:56.473Z,28.33
2018-05-04T18:52:24.203Z,29.77
2018-05-04T18:54:51.795Z,25.87
2018-05-04T18:57:19.385Z,27.37
2018-05-04T18:59:46.980Z,26.47
2018-05-04T19:02:20.311Z,26.87
2018-05-04T19:04:47.874Z,25.77
2018-05-04T19:07:15.835Z,26.70
2018-05-04T19:09:43.445Z,25.03
2018-05-04T19:12:11.113Z,27.00
2018-05-04T19:14:39.534Z,24.93
2018-05-04T19:17:07.206Z,26.50
2018-05-04T19:19:34.862Z,27.67
2018-05-04T19:22:02.461Z,26.47
2018-05-04T19:24:30.042Z,25.40
2018-05-04T19:26:57.688Z,26.73
2018-05-04T19:29:25.321Z,29.00
2018-05-04T19:31:52.947Z,30.73
2018-05-04T19:34:21.307Z,27.30
2018-05-04T19:36:48.921Z,28.63
2018-05-04T19:39:17.665Z,27.83
2018-05-04T19:41:45.248Z,27.00
2018-05-04T19:44:12.840Z,27.60
2018-05-04T19:46:41.264Z,28.20
2018-05-04T19:49:08.876Z,25.33
2018-05-04T19:51:36.466Z,28.50
2018-05-04T19:54:04.838Z,26.50
2018-05-04T19:56:33.223Z,28.63
2018-05-04T19:59:01.618Z,29.60
2018-05-04T20:01:29.236Z,30.40
2018-05-04T20:03:56.831Z,26.57
2018-05-04T20:06:25.199Z,28.87
2018-05-04T20:08:52.810Z,30.53
2018-05-04T20:11:20.496Z,26.70
2018-05-04T20:13:48.154Z,26.77
2018-05-04T20:16:15.689Z,27.77
2018-05-04T20:18:44.205Z,28.77
2018-05-04T20:21:11.858Z,29.13
2018-05-04T20:23:39.419Z,29.97
2018-05-04T20:26:06.982Z,26.80
2018-05-04T20:28:35.384Z,28.47
2018-05-04T20:31:03.003Z,27.70
2018-05-04T20:33:30.724Z,30.10
2018-05-04T20:35:58.330Z,28.50
2018-05-04T20:38:26.706Z,26.40
2018-05-04T20:40:54.305Z,26.63
2018-05-04T20:43:22.723Z,27.20
2018-05-04T20:45:50.310Z,29.17
2018-05-04T20:48:17.949Z,27.10
2018-05-04T20:50:45.546Z,24.53
2018-05-04T20:53:13.184Z,26.83
2018-05-04T20:55:40.747Z,28.77
2018-05-04T20:58:08.349Z,27.80
2018-05-04T21:00:36.613Z,29.87
2018-05-04T21:03:04.181Z,28.00
2018-05-04T21:05:31.752Z,29.00
2018-05-04T21:07:59.289Z,28.30
2018-05-04T21:10:27.787Z,26.70
2018-05-04T21:12:55.373Z,30.00
2018-05-04T21:15:23.215Z,31.03
2018-05-04T21:17:50.746Z,30.80
2018-05-04T21:20:19.057Z,30.50
2018-05-04T21:22:46.627Z,30.03
2018-05-04T21:25:14.163Z,27.70
2018-05-04T21:27:42.520Z,29.70
2018-05-04T21:30:10.808Z,32.30
2018-05-04T21:32:39.103Z,31.03
2018-05-04T21:35:07.403Z,33.17
2018-05-04T21:37:34.956Z,29.43
2018-05-04T21:40:02.497Z,32.17
2018-05-04T21:42:30.776Z,30.77
2018-05-04T21:44:58.378Z,31.60
2018-05-04T21:47:25.928Z,29.97
2018-05-04T21:49:54.209Z,34.13
2018-05-04T21:52:22.531Z,34.33
2018-05-04T21:54:50.065Z,36.87
2018-05-04T21:57:17.605Z,37.00
2018-05-04T21:59:45.889Z,33.00
2018-05-04T22:02:14.214Z,36.07
2018-05-04T22:04:41.776Z,36.03
2018-05-04T22:07:10.034Z,38.83
2018-05-04T22:09:37.606Z,36.03
2018-05-04T22:12:05.121Z,35.97
2018-05-04T22:14:33.437Z,34.70
2018-05-04T22:17:01.724Z,36.07
2018-05-04T22:19:29.298Z,34.07
2018-05-04T22:21:56.861Z,34.87
2018-05-04T22:24:24.376Z,35.27
2018-05-04T22:26:51.906Z,31.27
2018-05-04T22:29:19.453Z,34.50
2018-05-04T22:31:46.998Z,33.30
2018-05-04T22:34:15.272Z,30.20
2018-05-04T22:36:43.547Z,32.07
2018-05-04T22:39:11.848Z,31.10
2018-05-04T22:41:39.374Z,33.53
2018-05-04T22:44:06.909Z,31.23
2018-05-04T22:46:34.419Z,32.47
2018-05-04T22:49:01.955Z,34.40
2018-05-04T22:51:29.477Z,34.13
2018-05-04T22:53:56.991Z,32.60
2018-05-04T22:56:24.536Z,33.07
2018-05-04T22:58:52.050Z,35.60
2018-05-04T23:01:20.357Z,31.07
2018-05-04T23:03:47.869Z,31.03
2018-05-04T23:06:15.402Z,31.37
2018-05-04T23:08:42.925Z,31.87
2018-05-04T23:11:11.219Z,29.33
2018-05-04T23:13:38.746Z,33.93
2018-05-04T23:16:06.272Z,32.50
2018-05-04T23:18:33.795Z,32.53
2018-05-04T23:21:02.128Z,32.83
2018-05-04T23:23:29.636Z,33.93
2018-05-04T23:25:57.908Z,32.60
2018-05-04T23:28:26.192Z,30.43
2018-05-04T23:30:54.470Z,31.33
2018-05-04T23:33:22.025Z,30.03
2018-05-04T23:35:49.543Z,27.17
2018-05-04T23:38:17.096Z,28.93
2018-05-04T23:40:44.622Z,27.70
2018-05-04T23:43:12.144Z,27.33
2018-05-04T23:45:39.682Z,29.77
2018-05-04T23:48:07.208Z,31.50
2018-05-04T23:50:34.727Z,29.13
2018-05-04T23:53:02.276Z,30.47
2018-05-04T23:55:29.792Z,28.53
2018-05-04T23:57:57.336Z,29.23
